createdAt,value
2016-02-26T00:00:43.593Z,2.57
2016-02-26T00:01:43.566Z,2.57
2016-02-26T00:02:43.521Z,2.53
2016-02-26T00:03:43.493Z,2.5
2016-02-26T00:04:43.464Z,2.51
2016-02-26T00:05:43.451Z,2.61
2016-02-26T00:06:43.407Z,2.49
2016-02-26T00:07:43.378Z,2.44
2016-02-26T00:08:43.350Z,2.42
2016-02-26T00:09:43.320Z,2.54
2016-02-26T00:10:43.276Z,2.57
2016-02-26T00:11:43.264Z,2.51
2016-02-26T00:12:43.236Z,2.53
2016-02-26T00:13:43.191Z,2.57
2016-02-26T00:14:43.148Z,2.54
2016-02-26T00:15:43.165Z,2.53
2016-02-26T00:16:43.106Z,2.56
2016-02-26T00:17:43.092Z,2.57
2016-02-26T00:18:43.033Z,2.46
2016-02-26T00:19:43.020Z,2.47
2016-02-26T00:20:42.976Z,2.46
2016-02-26T00:21:42.963Z,2.43
2016-02-26T00:22:42.919Z,2.46
2016-02-26T00:23:42.890Z,2.46
2016-02-26T00:24:42.846Z,2.43
2016-02-26T00:25:42.833Z,2.44
2016-02-26T00:26:42.804Z,2.5
2016-02-26T00:27:42.761Z,2.47
2016-02-26T00:28:42.732Z,2.42
2016-02-26T00:29:42.734Z,2.39
2016-02-26T00:30:42.659Z,2.38
2016-02-26T00:31:42.646Z,2.38
2016-02-26T00:32:42.602Z,2.26
2016-02-26T00:33:42.604Z,2.33
2016-02-26T00:34:42.545Z,2.33
2016-02-26T00:35:42.516Z,2.24
2016-02-26T00:36:42.487Z,2.35
2016-02-26T00:37:42.459Z,2.28
2016-02-26T00:38:42.414Z,2.32
2016-02-26T00:39:42.386Z,2.26
2016-02-26T00:40:42.357Z,2.26
2016-02-26T00:41:42.329Z,2.28
2016-02-26T00:42:42.300Z,2.26
2016-02-26T00:43:42.287Z,2.29
2016-02-26T00:44:42.243Z,2.29
2016-02-26T00:45:42.200Z,2.26
2016-02-26T00:46:42.170Z,2.13
2016-02-26T00:47:42.142Z,2.28
2016-02-26T00:48:42.113Z,2.28
2016-02-26T00:49:42.069Z,2.2
2016-02-26T00:50:42.056Z,2.22
2016-02-26T00:51:42.028Z,2.25
2016-02-26T00:52:42.000Z,2.15
2016-02-26T00:53:41.955Z,2.14
2016-02-26T00:54:41.942Z,2.17
2016-02-26T00:55:41.897Z,2.17
2016-02-26T00:56:41.869Z,2.2
2016-02-26T00:57:41.825Z,2.1
2016-02-26T00:58:41.797Z,2.22
2016-02-26T00:59:41.769Z,2.26
2016-02-26T01:00:41.740Z,2.18
2016-02-26T01:01:41.710Z,2.22
2016-02-26T01:02:41.682Z,2.24
2016-02-26T01:03:41.655Z,2.31
2016-02-26T01:04:41.610Z,2.26
2016-02-26T01:05:41.582Z,2.26
2016-02-26T01:06:41.552Z,2.28
2016-02-26T01:07:41.524Z,2.26
2016-02-26T01:08:41.511Z,2.32
2016-02-26T01:09:41.451Z,2.28
2016-02-26T01:10:41.454Z,2.25
2016-02-26T01:11:41.383Z,2.25
2016-02-26T01:12:41.342Z,2.22
2016-02-26T01:13:41.301Z,2.36
2016-02-26T01:14:41.261Z,2.29
2016-02-26T01:15:41.220Z,2.32
2016-02-26T01:16:41.186Z,2.31
2016-02-26T01:17:41.169Z,2.24
2016-02-26T01:18:41.105Z,2.28
2016-02-26T01:19:41.088Z,2.32
2016-02-26T01:20:41.257Z,2.26
2016-02-26T01:21:41.009Z,2.42
2016-02-26T01:22:40.964Z,2.42
2016-02-26T01:23:40.933Z,2.39
2016-02-26T01:24:40.903Z,2.43
2016-02-26T01:25:40.873Z,2.44
2016-02-26T01:26:40.844Z,2.53
2016-02-26T01:27:40.861Z,2.44
2016-02-26T01:28:40.801Z,2.42
2016-02-26T01:29:40.756Z,2.46
2016-02-26T01:30:40.711Z,2.43
2016-02-26T01:31:40.682Z,2.5
2016-02-26T01:32:40.653Z,2.44
2016-02-26T01:33:40.624Z,2.47
2016-02-26T01:34:40.597Z,2.5
2016-02-26T01:35:40.568Z,2.53
2016-02-26T01:36:40.539Z,2.47
2016-02-26T01:37:40.510Z,2.49
2016-02-26T01:38:40.482Z,2.56
2016-02-26T01:39:40.438Z,2.53
2016-02-26T01:40:40.425Z,2.6
2016-02-26T01:41:40.381Z,2.47
2016-02-26T01:42:40.399Z,2.51
2016-02-26T01:43:40.324Z,2.6
2016-02-26T01:44:40.295Z,2.56
2016-02-26T01:45:40.282Z,2.6
2016-02-26T01:46:40.238Z,2.53
2016-02-26T01:47:40.194Z,2.5
2016-02-26T01:48:40.181Z,2.56
2016-02-26T01:49:40.137Z,2.53
2016-02-26T01:50:40.108Z,2.57
2016-02-26T01:51:40.079Z,2.51
2016-02-26T01:52:40.051Z,2.43
2016-02-26T01:53:40.023Z,2.49
2016-02-26T01:54:39.994Z,2.51
2016-02-26T01:55:39.965Z,2.49
2016-02-26T01:56:39.922Z,2.49
2016-02-26T01:57:39.971Z,2.46
2016-02-26T01:58:39.864Z,2.39
2016-02-26T01:59:39.836Z,2.46
2016-02-26T02:00:39.807Z,2.42
2016-02-26T02:01:39.763Z,2.42
2016-02-26T02:02:39.734Z,2.42
2016-02-26T02:03:39.721Z,2.38
2016-02-26T02:04:39.693Z,2.39
2016-02-26T02:05:39.649Z,2.36
2016-02-26T02:06:39.620Z,2.39
2016-02-26T02:07:39.576Z,2.28
2016-02-26T02:08:39.563Z,2.26
2016-02-26T02:09:39.534Z,2.26
2016-02-26T02:10:39.491Z,2.36
2016-02-26T02:11:39.462Z,2.32
2016-02-26T02:12:39.433Z,2.28
2016-02-26T02:13:39.420Z,2.32
2016-02-26T02:14:39.376Z,2.28
2016-02-26T02:15:39.348Z,2.31
2016-02-26T02:16:39.318Z,2.28
2016-02-26T02:17:39.274Z,2.29
2016-02-26T02:18:39.246Z,2.38
2016-02-26T02:19:39.233Z,2.28
2016-02-26T02:20:39.189Z,2.42
2016-02-26T02:21:39.160Z,2.38
2016-02-26T02:22:39.116Z,2.36
2016-02-26T02:23:39.087Z,2.44
2016-02-26T02:24:39.059Z,2.28
2016-02-26T02:25:39.031Z,2.29
2016-02-26T02:26:39.002Z,2.28
2016-02-26T02:27:38.958Z,2.31
2016-02-26T02:28:38.929Z,2.29
2016-02-26T02:29:38.901Z,2.36
2016-02-26T02:30:38.888Z,2.35
2016-02-26T02:31:38.859Z,2.26
2016-02-26T02:32:38.814Z,2.32
2016-02-26T02:33:38.787Z,2.35
2016-02-26T02:34:38.758Z,2.28
2016-02-26T02:35:38.714Z,2.39
2016-02-26T02:36:38.685Z,2.32
2016-02-26T02:37:38.657Z,2.33
2016-02-26T02:38:38.627Z,2.31
2016-02-26T02:39:38.599Z,2.31
2016-02-26T02:40:38.571Z,2.31
2016-02-26T02:41:38.527Z,2.31
2016-02-26T02:42:38.514Z,2.26
2016-02-26T02:43:38.501Z,2.33
2016-02-26T02:44:38.456Z,2.43
2016-02-26T02:45:38.412Z,2.43
2016-02-26T02:46:38.385Z,2.43
2016-02-26T02:47:38.355Z,2.47
2016-02-26T02:48:38.312Z,2.47
2016-02-26T02:49:38.282Z,2.47
2016-02-26T02:50:38.254Z,2.46
2016-02-26T02:51:38.225Z,2.56
2016-02-26T02:52:38.212Z,2.54
2016-02-26T02:53:38.168Z,2.56
2016-02-26T02:54:38.140Z,2.6
2016-02-26T02:55:38.112Z,2.57
2016-02-26T02:56:38.083Z,2.53
2016-02-26T02:57:38.038Z,2.57
2016-02-26T02:58:38.009Z,2.6
2016-02-26T02:59:37.982Z,2.68
2016-02-26T03:00:37.969Z,2.68
2016-02-26T03:01:37.925Z,2.65
2016-02-26T03:02:37.895Z,2.65
2016-02-26T03:03:37.852Z,2.57
2016-02-26T03:04:37.839Z,2.57
2016-02-26T03:05:37.815Z,2.65
2016-02-26T03:06:37.771Z,2.67
2016-02-26T03:07:37.742Z,2.62
2016-02-26T03:08:37.698Z,2.67
2016-02-26T03:09:37.686Z,2.64
2016-02-26T03:10:37.641Z,2.62
2016-02-26T03:11:37.614Z,2.64
2016-02-26T03:12:37.585Z,2.6
2016-02-26T03:13:37.572Z,2.65
2016-02-26T03:14:37.528Z,2.6
2016-02-26T03:15:37.499Z,2.64
2016-02-26T03:16:37.471Z,2.64
2016-02-26T03:17:37.441Z,2.61
2016-02-26T03:18:37.397Z,2.54
2016-02-26T03:19:37.385Z,2.57
2016-02-26T03:20:37.341Z,2.56
2016-02-26T03:21:37.327Z,2.44
2016-02-26T03:22:37.283Z,2.44
2016-02-26T03:23:37.254Z,2.43
2016-02-26T03:24:37.211Z,2.49
2016-02-26T03:25:37.229Z,2.5
2016-02-26T03:26:37.154Z,2.43
2016-02-26T03:27:37.125Z,2.46
2016-02-26T03:28:37.112Z,2.42
2016-02-26T03:29:37.068Z,2.35
2016-02-26T03:30:37.040Z,2.38
2016-02-26T03:31:37.011Z,2.42
2016-02-26T03:32:36.982Z,2.44
2016-02-26T03:33:36.937Z,2.33
2016-02-26T03:34:36.925Z,2.18
2016-02-26T03:35:36.881Z,2.26
2016-02-26T03:36:36.867Z,2.29
2016-02-26T03:37:36.824Z,2.29
2016-02-26T03:38:36.795Z,2.32
2016-02-26T03:39:36.751Z,2.26
2016-02-26T03:40:36.753Z,2.28
2016-02-26T03:41:36.694Z,2.26
2016-02-26T03:42:36.681Z,2.28
2016-02-26T03:43:36.637Z,2.24
2016-02-26T03:44:36.592Z,2.17
2016-02-26T03:45:36.564Z,2.15
2016-02-26T03:46:36.566Z,2.15
2016-02-26T03:47:36.507Z,2.14
2016-02-26T03:48:36.494Z,2.18
2016-02-26T03:49:36.449Z,2.15
2016-02-26T03:50:36.438Z,2.15
2016-02-26T03:51:36.377Z,2.1
2016-02-26T03:52:36.379Z,2.1
2016-02-26T03:53:36.320Z,2.07
2016-02-26T03:54:36.291Z,2.1
2016-02-26T03:55:36.263Z,2.1
2016-02-26T03:56:36.282Z,2.04
2016-02-26T03:57:36.190Z,2.07
2016-02-26T03:58:36.177Z,1.99
2016-02-26T03:59:36.132Z,1.97
2016-02-26T04:00:36.104Z,2.07
2016-02-26T04:01:36.076Z,1.97
2016-02-26T04:02:36.032Z,2.02
2016-02-26T04:03:36.050Z,1.99
2016-02-26T04:04:35.975Z,1.99
2016-02-26T04:05:35.961Z,1.99
2016-02-26T04:06:35.917Z,2.04
2016-02-26T04:07:35.889Z,2.06
2016-02-26T04:08:35.844Z,2.08
2016-02-26T04:09:35.831Z,2
2016-02-26T04:10:35.787Z,2.02
2016-02-26T04:11:35.758Z,2.06
2016-02-26T04:12:35.730Z,2.04
2016-02-26T04:13:35.703Z,2.07
2016-02-26T04:14:35.658Z,2.11
2016-02-26T04:15:35.645Z,2.11
2016-02-26T04:16:35.600Z,2.1
2016-02-26T04:17:35.572Z,2.17
2016-02-26T04:18:35.543Z,2.08
2016-02-26T04:19:35.515Z,2.13
2016-02-26T04:20:35.486Z,2.08
2016-02-26T04:21:35.458Z,2.11
2016-02-26T04:22:35.413Z,2.1
2016-02-26T04:23:35.385Z,2.1
2016-02-26T04:24:35.356Z,2.04
2016-02-26T04:25:35.312Z,2.04
2016-02-26T04:26:35.300Z,2.06
2016-02-26T04:27:35.255Z,2.06
2016-02-26T04:28:35.227Z,1.99
2016-02-26T04:29:35.198Z,1.99
2016-02-26T04:30:35.170Z,2.02
2016-02-26T04:31:35.140Z,1.95
2016-02-26T04:32:35.097Z,1.97
2016-02-26T04:33:35.068Z,1.99
2016-02-26T04:34:35.040Z,1.99
2016-02-26T04:35:35.011Z,1.95
2016-02-26T04:36:34.982Z,2
2016-02-26T04:37:34.953Z,1.94
2016-02-26T04:38:34.909Z,1.92
2016-02-26T04:39:34.882Z,1.89
2016-02-26T04:40:34.868Z,1.88
2016-02-26T04:41:34.824Z,1.85
2016-02-26T04:42:34.780Z,1.85
2016-02-26T04:43:34.748Z,1.81
2016-02-26T04:44:34.720Z,1.89
2016-02-26T04:45:34.708Z,1.81
2016-02-26T04:46:34.664Z,1.87
2016-02-26T04:47:34.634Z,1.87
2016-02-26T04:48:34.591Z,1.87
2016-02-26T04:49:34.561Z,1.76
2016-02-26T04:50:34.549Z,1.77
2016-02-26T04:51:34.504Z,1.78
2016-02-26T04:52:34.476Z,1.8
2016-02-26T04:53:34.448Z,1.78
2016-02-26T04:54:34.403Z,1.8
2016-02-26T04:55:34.374Z,1.8
2016-02-26T04:56:34.346Z,1.8
2016-02-26T04:57:34.317Z,1.78
2016-02-26T04:58:34.289Z,1.77
2016-02-26T04:59:34.261Z,1.74
2016-02-26T05:00:34.216Z,1.73
2016-02-26T05:01:34.188Z,1.62
2016-02-26T05:02:34.159Z,1.7
2016-02-26T05:03:34.131Z,1.73
2016-02-26T05:04:34.086Z,1.71
2016-02-26T05:05:34.063Z,1.73
2016-02-26T05:06:34.035Z,1.73
2016-02-26T05:07:33.991Z,1.67
2016-02-26T05:08:33.962Z,1.71
2016-02-26T05:09:33.949Z,1.63
2016-02-26T05:10:33.905Z,1.63
2016-02-26T05:11:33.877Z,1.58
2016-02-26T05:12:33.832Z,1.68
2016-02-26T05:13:33.820Z,1.62
2016-02-26T05:14:33.791Z,1.6
2016-02-26T05:15:33.747Z,1.63
2016-02-26T05:16:33.718Z,1.56
2016-02-26T05:17:33.689Z,1.59
2016-02-26T05:18:33.662Z,1.63
2016-02-26T05:19:33.633Z,1.59
2016-02-26T05:20:33.589Z,1.59
2016-02-26T05:21:33.559Z,1.67
2016-02-26T05:22:33.531Z,1.66
2016-02-26T05:23:33.487Z,1.63
2016-02-26T05:24:33.474Z,1.59
2016-02-26T05:25:33.445Z,1.62
2016-02-26T05:26:33.386Z,1.62
2016-02-26T05:27:33.373Z,1.58
2016-02-26T05:28:33.328Z,1.52
2016-02-26T05:29:33.300Z,1.56
2016-02-26T05:30:33.271Z,1.6
2016-02-26T05:31:33.244Z,1.58
2016-02-26T05:32:33.214Z,1.5
2016-02-26T05:33:33.201Z,1.55
2016-02-26T05:34:33.141Z,1.56
2016-02-26T05:35:33.113Z,1.53
2016-02-26T05:36:33.085Z,1.52
2016-02-26T05:37:33.041Z,1.5
2016-02-26T05:38:33.027Z,1.58
2016-02-26T05:39:32.999Z,1.58
2016-02-26T05:40:32.954Z,1.58
2016-02-26T05:41:32.926Z,1.48
2016-02-26T05:42:32.881Z,1.53
2016-02-26T05:43:32.853Z,1.49
2016-02-26T05:44:32.825Z,1.58
2016-02-26T05:45:32.796Z,1.56
2016-02-26T05:46:32.768Z,1.59
2016-02-26T05:47:32.739Z,1.49
2016-02-26T05:48:32.711Z,1.56
2016-02-26T05:49:32.667Z,1.56
2016-02-26T05:50:32.638Z,1.59
2016-02-26T05:51:32.609Z,1.45
2016-02-26T05:52:32.581Z,1.56
2016-02-26T05:53:32.537Z,1.58
2016-02-26T05:54:32.509Z,1.48
2016-02-26T05:55:32.480Z,1.53
2016-02-26T05:56:32.450Z,1.58
2016-02-26T05:57:32.423Z,1.58
2016-02-26T05:58:32.378Z,1.55
2016-02-26T05:59:32.349Z,1.56
2016-02-26T06:00:32.321Z,1.56
2016-02-26T06:01:32.292Z,1.48
2016-02-26T06:02:32.264Z,1.48
2016-02-26T06:03:32.220Z,1.55
2016-02-26T06:04:32.191Z,1.62
2016-02-26T06:05:32.163Z,1.52
2016-02-26T06:06:32.134Z,1.5
2016-02-26T06:07:32.105Z,1.56
2016-02-26T06:08:32.061Z,1.66
2016-02-26T06:09:32.033Z,1.62
2016-02-26T06:10:32.004Z,1.67
2016-02-26T06:11:31.960Z,1.68
2016-02-26T06:12:31.931Z,1.56
2016-02-26T06:13:31.918Z,1.67
2016-02-26T06:14:31.874Z,1.63
2016-02-26T06:15:31.846Z,1.74
2016-02-26T06:16:31.818Z,1.76
2016-02-26T06:17:31.789Z,1.78
2016-02-26T06:18:31.745Z,1.78
2016-02-26T06:19:31.715Z,1.73
2016-02-26T06:20:31.687Z,1.8
2016-02-26T06:21:31.658Z,1.85
2016-02-26T06:22:31.646Z,1.89
2016-02-26T06:23:31.601Z,1.91
2016-02-26T06:24:31.558Z,1.84
2016-02-26T06:25:31.544Z,2
2016-02-26T06:26:31.500Z,1.99
2016-02-26T06:27:31.456Z,1.99
2016-02-26T06:28:31.427Z,1.97
2016-02-26T06:29:31.400Z,2.08
2016-02-26T06:30:31.386Z,2.04
2016-02-26T06:31:31.342Z,2.11
2016-02-26T06:32:31.313Z,2.11
2016-02-26T06:33:31.269Z,2.1
2016-02-26T06:34:31.240Z,2.17
2016-02-26T06:35:31.228Z,2.07
2016-02-26T06:36:31.183Z,2.13
2016-02-26T06:37:31.155Z,2.17
2016-02-26T06:38:31.126Z,2.15
2016-02-26T06:39:31.082Z,2.2
2016-02-26T06:40:31.068Z,2.25
2016-02-26T06:41:31.025Z,2.29
2016-02-26T06:42:31.009Z,2.25
2016-02-26T06:43:30.964Z,2.31
2016-02-26T06:44:30.935Z,2.26
2016-02-26T06:45:30.906Z,2.29
2016-02-26T06:46:30.879Z,2.32
2016-02-26T06:47:30.850Z,2.43
2016-02-26T06:48:30.821Z,2.43
2016-02-26T06:49:30.777Z,2.51
2016-02-26T06:50:30.749Z,2.51
2016-02-26T06:51:30.720Z,2.53
2016-02-26T06:52:30.691Z,2.61
2016-02-26T06:53:30.663Z,2.68
2016-02-26T06:54:30.635Z,2.67
2016-02-26T06:55:30.606Z,2.64
2016-02-26T06:56:30.561Z,2.68
2016-02-26T06:57:30.548Z,2.79
2016-02-26T06:58:30.520Z,2.8
2016-02-26T06:59:30.476Z,2.77
2016-02-26T07:00:30.447Z,2.82
2016-02-26T07:01:30.419Z,2.83
2016-02-26T07:02:30.421Z,2.85
2016-02-26T07:03:30.362Z,2.9
2016-02-26T07:04:30.332Z,2.93
2016-02-26T07:05:30.289Z,2.93
2016-02-26T07:06:30.260Z,2.97
2016-02-26T07:07:30.232Z,3
2016-02-26T07:08:30.204Z,2.95
2016-02-26T07:09:30.190Z,2.92
2016-02-26T07:10:30.161Z,3.03
2016-02-26T07:11:30.117Z,3.01
2016-02-26T07:12:30.090Z,3.07
2016-02-26T07:13:30.061Z,3.08
2016-02-26T07:14:30.032Z,3.16
2016-02-26T07:15:29.987Z,3.18
2016-02-26T07:16:29.975Z,3.16
2016-02-26T07:17:29.946Z,3.19
2016-02-26T07:18:29.917Z,3.23
2016-02-26T07:19:29.888Z,3.28
2016-02-26T07:20:29.861Z,3.34
2016-02-26T07:21:29.817Z,3.37
2016-02-26T07:22:29.788Z,3.36
2016-02-26T07:23:29.759Z,3.44
2016-02-26T07:24:29.730Z,3.48
2016-02-26T07:25:29.719Z,3.37
2016-02-26T07:26:29.674Z,3.5
2016-02-26T07:27:29.645Z,3.51
2016-02-26T07:28:29.616Z,3.5
2016-02-26T07:29:29.588Z,3.53
2016-02-26T07:30:29.559Z,3.55
2016-02-26T07:31:29.530Z,3.55
2016-02-26T07:32:29.501Z,3.58
2016-02-26T07:33:29.474Z,3.62
2016-02-26T07:34:29.461Z,3.76
2016-02-26T07:35:29.416Z,3.66
2016-02-26T07:36:29.388Z,3.77
2016-02-26T07:37:29.359Z,3.77
2016-02-26T07:38:29.378Z,3.77
2016-02-26T07:39:29.302Z,3.84
2016-02-26T07:40:29.290Z,3.91
2016-02-26T07:41:29.245Z,3.84
2016-02-26T07:42:29.201Z,3.91
2016-02-26T07:43:29.187Z,3.92
2016-02-26T07:44:29.144Z,3.87
2016-02-26T07:45:29.114Z,3.94
2016-02-26T07:46:29.087Z,3.95
2016-02-26T07:47:29.059Z,4.01
2016-02-26T07:48:29.045Z,4.06
2016-02-26T07:49:29.001Z,4.04
2016-02-26T07:50:28.988Z,4.06
2016-02-26T07:51:28.959Z,4.08
2016-02-26T07:52:28.915Z,4.13
2016-02-26T07:53:28.887Z,4.13
2016-02-26T07:54:28.858Z,4.23
2016-02-26T07:55:28.830Z,4.28
2016-02-26T07:56:28.801Z,4.32
2016-02-26T07:57:28.772Z,4.31
2016-02-26T07:58:28.743Z,4.31
2016-02-26T07:59:28.716Z,4.28
2016-02-26T08:00:28.688Z,4.32
2016-02-26T08:01:28.658Z,4.37
2016-02-26T08:02:28.630Z,4.4
2016-02-26T08:03:28.616Z,4.41
2016-02-26T08:04:28.588Z,4.52
2016-02-26T08:05:28.543Z,4.56
2016-02-26T08:06:28.515Z,4.53
2016-02-26T08:07:28.487Z,4.52
2016-02-26T08:08:28.474Z,4.53
2016-02-26T08:09:28.430Z,4.6
2016-02-26T08:10:28.417Z,4.56
2016-02-26T08:11:28.404Z,4.74
2016-02-26T08:12:28.360Z,4.68
2016-02-26T08:13:28.331Z,4.7
2016-02-26T08:14:28.303Z,4.67
2016-02-26T08:15:28.274Z,4.74
2016-02-26T08:16:28.261Z,4.84
2016-02-26T08:17:28.233Z,4.75
2016-02-26T08:18:28.204Z,4.84
2016-02-26T08:19:28.159Z,4.84
2016-02-26T08:20:28.147Z,4.77
2016-02-26T08:21:28.119Z,4.87
2016-02-26T08:22:28.074Z,4.87
2016-02-26T08:23:28.045Z,4.94
2016-02-26T08:24:28.017Z,5.04
2016-02-26T08:25:28.005Z,4.93
2016-02-26T08:26:27.975Z,4.94
2016-02-26T08:27:27.947Z,4.97
2016-02-26T08:28:27.919Z,5.05
2016-02-26T08:29:27.890Z,5.04
2016-02-26T08:30:27.861Z,5.08
2016-02-26T08:31:28.364Z,5.04
2016-02-26T08:32:28.757Z,5.12
2016-02-26T08:33:28.244Z,5.15
2016-02-26T08:34:27.747Z,5.08
2016-02-26T08:35:27.718Z,5.2
2016-02-26T08:36:27.705Z,5.23
2016-02-26T08:37:27.677Z,5.18
2016-02-26T08:38:27.632Z,5.3
2016-02-26T08:39:27.620Z,5.29
2016-02-26T08:40:27.590Z,5.32
2016-02-26T08:41:27.562Z,5.35
2016-02-26T08:42:27.534Z,5.41
2016-02-26T08:43:27.506Z,5.41
2016-02-26T08:44:27.476Z,5.54
2016-02-26T08:45:27.574Z,5.48
2016-02-26T08:46:27.436Z,5.47
2016-02-26T08:47:27.407Z,5.53
2016-02-26T08:48:27.378Z,5.66
2016-02-26T08:49:27.350Z,5.72
2016-02-26T08:50:27.322Z,5.68
2016-02-26T08:51:27.308Z,5.69
2016-02-26T08:52:27.280Z,5.73
2016-02-26T08:53:27.251Z,5.75
2016-02-26T08:54:27.222Z,5.73
2016-02-26T08:55:27.194Z,5.79
2016-02-26T08:56:27.166Z,5.76
2016-02-26T08:57:27.137Z,5.86
2016-02-26T08:58:27.108Z,5.84
2016-02-26T08:59:27.096Z,5.86
2016-02-26T09:00:27.067Z,5.91
2016-02-26T09:01:27.038Z,5.91
2016-02-26T09:02:27.010Z,5.99
2016-02-26T09:03:26.982Z,6.07
2016-02-26T09:04:26.953Z,6.05
2016-02-26T09:05:27.158Z,6.12
2016-02-26T09:06:26.911Z,6.16
2016-02-26T09:07:26.883Z,6.22
2016-02-26T09:08:26.870Z,6.2
2016-02-26T09:09:26.841Z,6.12
2016-02-26T09:10:26.657Z,6.26
2016-02-26T09:11:26.784Z,6.12
2016-02-26T09:12:26.756Z,6.24
2016-02-26T09:13:26.743Z,6.3
2016-02-26T09:14:26.698Z,6.35
2016-02-26T09:15:26.685Z,6.38
2016-02-26T09:16:26.657Z,6.38
2016-02-26T09:17:26.629Z,6.39
2016-02-26T09:18:26.600Z,6.46
2016-02-26T09:19:26.587Z,6.51
2016-02-26T09:20:26.543Z,6.52
2016-02-26T09:21:26.530Z,6.59
2016-02-26T09:22:26.501Z,6.59
2016-02-26T09:23:26.472Z,6.67
2016-02-26T09:24:26.459Z,6.59
2016-02-26T09:25:26.431Z,6.66
2016-02-26T09:26:26.418Z,6.63
2016-02-26T09:27:26.374Z,6.67
2016-02-26T09:28:26.361Z,6.67
2016-02-26T09:29:26.333Z,6.62
2016-02-26T09:30:26.147Z,6.72
2016-02-26T09:31:26.275Z,6.72
2016-02-26T09:32:26.247Z,6.77
2016-02-26T09:33:26.218Z,6.63
2016-02-26T09:34:26.205Z,6.75
2016-02-26T09:35:26.177Z,6.67
2016-02-26T09:36:26.163Z,6.74
2016-02-26T09:37:26.151Z,6.81
2016-02-26T09:38:26.106Z,6.7
2016-02-26T09:39:26.079Z,6.79
2016-02-26T09:40:26.065Z,6.78
2016-02-26T09:41:26.084Z,6.72
2016-02-26T09:42:26.008Z,6.77
2016-02-26T09:43:25.979Z,6.84
2016-02-26T09:44:26.638Z,6.87
2016-02-26T09:45:25.937Z,6.87
2016-02-26T09:46:25.754Z,6.87
2016-02-26T09:47:26.006Z,6.88
2016-02-26T09:48:26.742Z,6.84
2016-02-26T09:49:26.714Z,6.85
2016-02-26T09:50:25.811Z,6.93
2016-02-26T09:51:25.782Z,6.89
2016-02-26T09:52:25.770Z,6.96
2016-02-26T09:53:25.742Z,7
2016-02-26T09:54:25.728Z,6.97
2016-02-26T09:55:25.684Z,7.03
2016-02-26T09:56:25.671Z,7.07
2016-02-26T09:57:25.689Z,7.13
2016-02-26T09:58:25.614Z,7.18
2016-02-26T09:59:25.600Z,7.13
2016-02-26T10:00:25.572Z,7.24
2016-02-26T10:01:25.559Z,7.21
2016-02-26T10:02:25.530Z,7.28
2016-02-26T10:03:25.502Z,7.28
2016-02-26T10:04:25.474Z,7.29
2016-02-26T10:05:25.444Z,7.35
2016-02-26T10:06:25.432Z,7.4
2016-02-26T10:07:25.404Z,7.35
2016-02-26T10:08:25.374Z,7.45
2016-02-26T10:09:25.362Z,7.51
2016-02-26T10:10:25.332Z,7.48
2016-02-26T10:11:25.305Z,7.43
2016-02-26T10:12:25.292Z,7.39
2016-02-26T10:13:25.263Z,7.4
2016-02-26T10:14:25.844Z,7.39
2016-02-26T10:15:25.222Z,7.29
2016-02-26T10:16:25.193Z,7.32
2016-02-26T10:17:25.162Z,7.39
2016-02-26T10:18:25.137Z,7.36
2016-02-26T10:19:25.096Z,7.45
2016-02-26T10:20:25.059Z,7.35
2016-02-26T10:21:25.034Z,7.4
2016-02-26T10:22:24.994Z,7.43
2016-02-26T10:23:24.962Z,7.48
2016-02-26T10:24:24.928Z,7.47
2016-02-26T10:25:24.910Z,7.51
2016-02-26T10:26:24.878Z,7.48
2016-02-26T10:27:24.845Z,7.45
2016-02-26T10:28:24.815Z,7.38
2016-02-26T10:29:24.800Z,7.47
2016-02-26T10:30:24.786Z,7.53
2016-02-26T10:31:24.740Z,7.51
2016-02-26T10:32:24.726Z,7.58
2016-02-26T10:33:24.713Z,7.58
2016-02-26T10:34:24.684Z,7.58
2016-02-26T10:35:24.654Z,7.57
2016-02-26T10:36:24.626Z,7.61
2016-02-26T10:37:24.612Z,7.67
2016-02-26T10:38:24.583Z,7.63
2016-02-26T10:39:24.569Z,7.73
2016-02-26T10:40:24.526Z,7.76
2016-02-26T10:41:24.512Z,7.94
2016-02-26T10:42:24.484Z,8.01
2016-02-26T10:43:24.471Z,7.97
2016-02-26T10:44:24.442Z,7.77
2016-02-26T10:45:24.445Z,7.76
2016-02-26T10:46:24.385Z,7.73
2016-02-26T10:47:24.372Z,7.67
2016-02-26T10:48:24.359Z,7.7
2016-02-26T10:49:24.331Z,7.75
2016-02-26T10:50:24.302Z,7.76
2016-02-26T10:51:24.274Z,7.82
2016-02-26T10:52:24.261Z,7.85
2016-02-26T10:53:24.232Z,7.9
2016-02-26T10:54:24.203Z,7.97
2016-02-26T10:55:24.191Z,8
2016-02-26T10:56:24.161Z,8.05
2016-02-26T10:57:24.149Z,8.08
2016-02-26T10:58:24.105Z,8.15
2016-02-26T10:59:24.092Z,8.24
2016-02-26T11:00:24.063Z,8.15
2016-02-26T11:01:24.050Z,8.24
2016-02-26T11:02:24.038Z,8.37
2016-02-26T11:03:23.993Z,8.45
2016-02-26T11:04:23.980Z,8.44
2016-02-26T11:05:23.952Z,8.41
2016-02-26T11:06:23.938Z,8.33
2016-02-26T11:07:23.910Z,8.38
2016-02-26T11:08:23.881Z,8.46
2016-02-26T11:09:23.869Z,8.46
2016-02-26T11:10:23.841Z,8.44
2016-02-26T11:11:23.827Z,8.31
2016-02-26T11:12:23.814Z,8.31
2016-02-26T11:13:23.786Z,8.27
2016-02-26T11:14:23.757Z,8.27
2016-02-26T11:15:23.729Z,8.28
2016-02-26T11:16:23.700Z,8.19
2016-02-26T11:17:23.687Z,8.23
2016-02-26T11:18:23.674Z,8.16
2016-02-26T11:19:23.645Z,8.1
2016-02-26T11:20:23.633Z,8.06
2016-02-26T11:21:23.589Z,7.94
2016-02-26T11:22:23.575Z,7.93
2016-02-26T11:23:23.562Z,7.8
2016-02-26T11:24:23.533Z,7.93
2016-02-26T11:25:23.521Z,7.95
2016-02-26T11:26:23.477Z,8.03
2016-02-26T11:27:23.464Z,8.1
2016-02-26T11:28:23.435Z,8.15
2016-02-26T11:29:23.408Z,8.08
2016-02-26T11:30:23.394Z,8.1
2016-02-26T11:31:23.381Z,8.06
2016-02-26T11:32:23.352Z,8.15
2016-02-26T11:33:23.324Z,8.15
2016-02-26T11:34:23.311Z,8.28
2016-02-26T11:35:23.282Z,8.34
2016-02-26T11:36:23.254Z,8.3
2016-02-26T11:37:23.225Z,8.37
2016-02-26T11:38:23.213Z,8.34
2016-02-26T11:39:23.185Z,8.34
2016-02-26T11:40:23.155Z,8.34
2016-02-26T11:41:23.142Z,8.36
2016-02-26T11:42:23.114Z,8.26
2016-02-26T11:43:23.085Z,8.26
2016-02-26T11:44:23.166Z,8.2
2016-02-26T11:45:23.043Z,8.15
2016-02-26T11:46:23.015Z,8.16
2016-02-26T11:47:23.002Z,8.16
2016-02-26T11:48:22.974Z,8.13
2016-02-26T11:49:22.945Z,8.08
2016-02-26T11:50:22.931Z,8.2
2016-02-26T11:51:22.920Z,8.18
2016-02-26T11:52:22.890Z,8.27
2016-02-26T11:53:22.862Z,8.28
2016-02-26T11:54:22.834Z,8.49
2016-02-26T11:55:22.821Z,8.41
2016-02-26T11:56:22.792Z,8.37
2016-02-26T11:57:22.779Z,8.44
2016-02-26T11:58:22.750Z,8.38
2016-02-26T11:59:22.753Z,8.52
2016-02-26T12:00:22.709Z,8.56
2016-02-26T12:01:22.680Z,8.55
2016-02-26T12:02:22.667Z,8.61
2016-02-26T12:03:22.639Z,8.69
2016-02-26T12:04:22.610Z,8.81
2016-02-26T12:05:22.597Z,8.82
2016-02-26T12:06:22.569Z,8.7
2016-02-26T12:07:22.541Z,8.67
2016-02-26T12:08:22.527Z,8.66
2016-02-26T12:09:22.499Z,8.76
2016-02-26T12:10:22.470Z,8.91
2016-02-26T12:11:22.457Z,8.99
2016-02-26T12:12:22.444Z,9.1
2016-02-26T12:13:22.415Z,9.21
2016-02-26T12:14:22.403Z,9.25
2016-02-26T12:15:22.374Z,9.21
2016-02-26T12:16:22.346Z,9.22
2016-02-26T12:17:22.317Z,9.31
2016-02-26T12:18:22.304Z,9.34
2016-02-26T12:19:22.276Z,9.31
2016-02-26T12:20:22.262Z,9.34
2016-02-26T12:21:22.234Z,9.34
2016-02-26T12:22:22.206Z,9.26
2016-02-26T12:23:22.192Z,9.21
2016-02-26T12:24:22.164Z,9.26
2016-02-26T12:25:22.151Z,9.29
2016-02-26T12:26:22.123Z,9.31
2016-02-26T12:27:22.109Z,9.31
2016-02-26T12:28:22.081Z,9.37
2016-02-26T12:29:22.084Z,9.39
2016-02-26T12:30:22.039Z,9.4
2016-02-26T12:31:22.011Z,9.43
2016-02-26T12:32:21.998Z,9.44
2016-02-26T12:33:21.970Z,9.46
2016-02-26T12:34:21.957Z,9.58
2016-02-26T12:35:21.928Z,9.44
2016-02-26T12:36:21.915Z,9.48
2016-02-26T12:37:21.808Z,9.5
2016-02-26T12:38:22.061Z,9.61
2016-02-26T12:39:21.846Z,9.51
2016-02-26T12:40:21.816Z,9.59
2016-02-26T12:41:21.804Z,9.58
2016-02-26T12:42:21.775Z,9.72
2016-02-26T12:43:21.747Z,9.69
2016-02-26T12:44:21.609Z,9.82
2016-02-26T12:45:21.721Z,9.86
2016-02-26T12:46:21.692Z,9.89
2016-02-26T12:47:21.679Z,9.86
2016-02-26T12:48:21.635Z,9.77
2016-02-26T12:49:21.637Z,9.77
2016-02-26T12:50:21.609Z,9.74
2016-02-26T12:51:21.581Z,9.65
2016-02-26T12:52:21.552Z,9.65
2016-02-26T12:53:21.539Z,9.65
2016-02-26T12:54:21.511Z,9.62
2016-02-26T12:55:21.482Z,9.66
2016-02-26T12:56:21.469Z,9.62
2016-02-26T12:57:21.440Z,9.59
2016-02-26T12:58:21.428Z,9.62
2016-02-26T12:59:21.399Z,9.59
2016-02-26T13:00:21.386Z,9.56
2016-02-26T13:01:22.592Z,9.62
2016-02-26T13:02:21.344Z,9.58
2016-02-26T13:03:21.317Z,9.65
2016-02-26T13:04:21.287Z,9.64
2016-02-26T13:05:21.274Z,9.65
2016-02-26T13:06:21.246Z,9.69
2016-02-26T13:07:21.233Z,9.72
2016-02-26T13:08:21.204Z,9.68
2016-02-26T13:09:21.176Z,9.66
2016-02-26T13:10:21.163Z,9.61
2016-02-26T13:11:21.134Z,9.54
2016-02-26T13:12:21.121Z,9.43
2016-02-26T13:13:21.108Z,9.46
2016-02-26T13:14:21.064Z,9.4
2016-02-26T13:15:21.051Z,9.43
2016-02-26T13:16:21.023Z,9.44
2016-02-26T13:17:21.010Z,9.36
2016-02-26T13:18:21.028Z,9.28
2016-02-26T13:19:20.954Z,9.25
2016-02-26T13:20:20.940Z,9.25
2016-02-26T13:21:20.926Z,9.31